Overview Statistics Trail Chart Weather Telemetry Raw packets
 

This is the latest recevied weather packets stored in our database for station/object EA1HTW-13. If no packets are shown the sender has not sent any weather packets the latest 10 day(s).

<< 21 22 23 24 25 26 27 >>
Time Temp. Humidity Pressure Rain* Wind** Luminosity Snow
1777721714 20° C 59% 1009 hPa 0 mm - - -
1777721175 19.44° C 60% 1009.4 hPa 0 mm - - -
1777720634 18.89° C 61% 1009.3 hPa 0 mm - - -
1777720095 18.33° C 60% 1009.6 hPa 0 mm - - -
1777719554 18.89° C 58% 1009.6 hPa 0 mm - - -
1777719015 19.44° C 55% 1009.5 hPa 0 mm - - -
1777718475 19.44° C 54% 1009.5 hPa 0 mm - - -
1777717934 19.44° C 53% 1009.4 hPa 0 mm - - -
1777717395 19.44° C 55% 1009.4 hPa 0 mm - - -
1777716855 19.44° C 53% 1009.5 hPa 0 mm - - -
1777716314 18.89° C 54% 1009.6 hPa 0 mm - - -
1777715776 18.89° C 56% 1009.4 hPa 0 mm - - -
1777715234 18.33° C 57% 1009.6 hPa 0 mm - - -
1777714695 18.33° C 57% 1009.6 hPa 0 mm - - -
1777714154 18.89° C 58% 1009.4 hPa 0 mm - - -
1777713614 18.89° C 58% 1009.3 hPa 0 mm - - -
1777713075 18.33° C 60% 1009.4 hPa 0 mm - - -
1777712535 17.78° C 62% 1009.4 hPa 0 mm - - -
1777711994 17.22° C 67% 1009.5 hPa 0 mm - - -
1777711455 17.22° C 68% 1009.6 hPa 0 mm - - -
1777710915 16.67° C 70% 1009.5 hPa 0 mm - - -
1777710375 16.11° C 71% 1009.6 hPa 0 mm - - -
1777709835 15.56° C 71% 1009.5 hPa 0 mm - - -
1777709295 15.56° C 72% 1009.6 hPa 0 mm - - -
1777708755 15.56° C 72% 1009.7 hPa 0 mm - - -

* Rain latest hour (hover to see other rain measurements)
** Current wind speed in m/s (hover to see current wind gust speed)